Time;durP1;ratioP1;P1;durP2;ratioP2;P2;SDS_P1;SDS_P2;PMS_P1;PMS_P2;Temp;Humidity;BMP_temperature;BMP_pressure;BME280_temperature;BME280_humidity;BME280_pressure;Samples;Min_cycle;Max_cycle;Signal;HPM_P1;HPM_P2
2023/08/30 00:01:03;;;;;;;19.20;17.15;;;18.30;99.90;;;;;;5118218;27;20034;-81
2023/08/30 00:03:28;;;;;;;18.77;16.88;;;18.70;99.90;;;;;;5113569;27;20039;-80
2023/08/30 00:05:55;;;;;;;19.20;17.13;;;18.30;99.90;;;;;;5080530;27;20481;-81
2023/08/30 00:08:21;;;;;;;19.27;17.30;;;18.30;99.90;;;;;;5130567;27;20092;-81
2023/08/30 00:10:48;;;;;;;17.52;15.68;;;18.30;99.90;;;;;;5082145;27;20035;-81
2023/08/30 00:13:15;;;;;;;20.15;17.00;;;18.20;99.90;;;;;;5133976;27;20062;-81
2023/08/30 00:15:41;;;;;;;19.02;17.02;;;18.20;99.90;;;;;;5114599;27;20039;-83
2023/08/30 00:18:06;;;;;;;18.75;16.75;;;18.20;99.90;;;;;;5134820;27;20039;-82
2023/08/30 00:20:33;;;;;;;20.60;17.75;;;18.20;99.90;;;;;;5116341;27;20043;-81
2023/08/30 00:22:59;;;;;;;20.23;17.25;;;18.20;99.90;;;;;;5117469;27;20050;-80
2023/08/30 00:25:25;;;;;;;20.27;18.17;;;18.20;99.90;;;;;;5132685;27;20046;-80
2023/08/30 00:27:51;;;;;;;19.33;17.25;;;18.20;99.90;;;;;;5134043;27;20451;-81
2023/08/30 00:30:16;;;;;;;15.38;13.80;;;18.20;99.90;;;;;;5096161;27;20043;-82
2023/08/30 00:32:42;;;;;;;16.55;14.23;;;18.20;99.90;;;;;;5129820;27;20069;-81
2023/08/30 00:35:08;;;;;;;17.70;15.68;;;18.20;99.90;;;;;;5132448;27;20117;-82
2023/08/30 00:37:34;;;;;;;17.50;15.40;;;18.10;99.90;;;;;;5117759;27;20402;-82
2023/08/30 00:40:00;;;;;;;15.73;14.13;;;18.10;99.90;;;;;;5107035;27;20043;-81
2023/08/30 00:42:27;;;;;;;19.42;17.02;;;18.10;99.90;;;;;;5096883;27;20035;-81
2023/08/30 00:44:52;;;;;;;17.17;15.48;;;18.10;99.90;;;;;;5114247;27;20187;-81
2023/08/30 00:47:20;;;;;;;23.15;16.27;;;18.10;99.90;;;;;;5134261;27;20455;-81
2023/08/30 00:49:45;;;;;;;20.92;18.75;;;18.10;99.90;;;;;;5092557;27;20046;-80
2023/08/30 00:52:11;;;;;;;19.55;17.27;;;18.10;99.90;;;;;;5108677;27;20034;-81
2023/08/30 00:54:38;;;;;;;19.77;17.70;;;18.10;99.90;;;;;;5108848;27;20202;-80
2023/08/30 00:57:05;;;;;;;18.77;16.83;;;18.00;99.90;;;;;;5109781;27;20498;-82
2023/08/30 00:59:33;;;;;;;18.33;16.48;;;18.00;99.90;;;;;;5111899;27;20081;-81
2023/08/30 01:02:01;;;;;;;18.45;16.55;;;17.90;99.90;;;;;;5111569;27;20497;-80
2023/08/30 01:04:27;;;;;;;18.58;16.67;;;17.90;99.90;;;;;;5091725;27;20023;-80
2023/08/30 01:06:54;;;;;;;18.30;15.93;;;17.90;99.90;;;;;;5124503;27;20041;-81
2023/08/30 01:09:21;;;;;;;20.30;16.33;;;17.90;99.90;;;;;;5097166;27;20555;-79
2023/08/30 01:11:57;;;;;;;20.02;17.30;;;17.90;99.90;;;;;;5114782;27;20038;-79
2023/08/30 01:14:30;;;;;;;18.67;16.67;;;17.80;99.90;;;;;;5114749;27;20061;-80
2023/08/30 01:16:57;;;;;;;18.63;16.43;;;17.80;99.90;;;;;;5095635;27;20027;-81
2023/08/30 01:19:55;;;;;;;19.67;16.88;;;17.80;99.90;;;;;;5114343;27;20119;-80
2023/08/30 01:22:45;;;;;;;16.55;14.75;;;17.80;99.90;;;;;;5115126;27;20523;-82
2023/08/30 01:25:43;;;;;;;18.50;16.02;;;17.70;99.90;;;;;;5127424;27;20126;-83
2023/08/30 01:28:10;;;;;;;17.27;15.52;;;17.60;99.90;;;;;;5133061;27;20494;-81
2023/08/30 01:30:41;;;;;;;17.60;15.70;;;17.60;99.90;;;;;;5090680;27;20111;-82
2023/08/30 01:33:08;;;;;;;17.23;15.52;;;17.60;99.90;;;;;;5114688;27;20075;-82
2023/08/30 01:35:36;;;;;;;15.35;13.75;;;17.60;99.90;;;;;;5115319;27;20118;-83
2023/08/30 01:38:05;;;;;;;14.82;13.32;;;17.50;99.90;;;;;;5133424;27;20348;-84
2023/08/30 01:40:41;;;;;;;15.40;13.63;;;17.50;99.90;;;;;;5112517;27;20364;-81
2023/08/30 01:43:08;;;;;;;14.45;12.98;;;17.40;99.90;;;;;;5111873;27;20039;-83
2023/08/30 01:45:40;;;;;;;14.25;12.77;;;17.50;99.90;;;;;;5114069;27;20039;-82
2023/08/30 01:48:09;;;;;;;13.50;12.10;;;17.40;99.90;;;;;;5116301;27;20122;-81
2023/08/30 01:50:35;;;;;;;14.73;13.15;;;17.30;99.90;;;;;;5113081;27;20703;-80
2023/08/30 01:53:03;;;;;;;15.27;13.52;;;17.40;99.90;;;;;;5105807;27;20382;-82
2023/08/30 01:55:30;;;;;;;15.68;13.75;;;17.50;99.90;;;;;;5129058;27;20043;-80
2023/08/30 01:57:56;;;;;;;14.32;12.80;;;17.40;99.90;;;;;;5128633;27;20043;-80
2023/08/30 02:00:21;;;;;;;15.00;13.48;;;17.40;99.90;;;;;;5106656;27;20452;-83
2023/08/30 02:02:48;;;;;;;15.75;12.68;;;17.40;99.90;;;;;;5105916;27;20114;-83
2023/08/30 02:05:13;;;;;;;17.17;14.75;;;17.50;99.90;;;;;;5120928;27;20057;-81
2023/08/30 02:08:00;;;;;;;15.18;13.57;;;17.40;99.90;;;;;;5106756;27;20038;-82
2023/08/30 02:10:34;;;;;;;16.55;14.85;;;17.40;99.90;;;;;;5125409;27;20035;-82
2023/08/30 02:13:03;;;;;;;14.80;13.30;;;17.40;99.90;;;;;;5111348;28;20039;-81
2023/08/30 02:15:31;;;;;;;13.77;12.40;;;17.40;99.90;;;;;;5109178;27;20035;-82
2023/08/30 02:17:57;;;;;;;14.00;12.50;;;17.30;99.90;;;;;;5120174;27;20084;-84
2023/08/30 02:20:23;;;;;;;14.88;13.38;;;17.40;99.90;;;;;;5088294;27;20443;-82
2023/08/30 02:22:49;;;;;;;15.57;13.85;;;17.30;99.90;;;;;;5090714;28;20045;-82
2023/08/30 02:25:15;;;;;;;15.38;13.70;;;17.30;99.90;;;;;;5108232;28;20359;-83
2023/08/30 02:27:41;;;;;;;16.02;13.73;;;17.30;99.90;;;;;;5102922;28;20039;-81
2023/08/30 02:30:07;;;;;;;17.10;15.38;;;17.20;99.90;;;;;;5105269;28;20031;-82
2023/08/30 02:32:33;;;;;;;15.25;13.65;;;17.30;99.90;;;;;;5085195;28;20096;-83
2023/08/30 02:34:59;;;;;;;18.02;14.95;;;17.20;99.90;;;;;;5109307;28;20043;-82
2023/08/30 02:37:25;;;;;;;17.98;15.73;;;17.30;99.90;;;;;;5107941;28;20146;-84
2023/08/30 02:39:50;;;;;;;18.30;15.35;;;17.20;99.90;;;;;;5110605;28;20099;-83
2023/08/30 02:42:16;;;;;;;15.15;13.15;;;17.20;99.90;;;;;;5111196;28;20053;-82
2023/08/30 02:44:42;;;;;;;16.35;13.93;;;17.20;99.90;;;;;;5128892;28;20453;-81
2023/08/30 02:47:08;;;;;;;16.55;14.38;;;17.20;99.90;;;;;;5092805;28;20114;-81
2023/08/30 02:49:34;;;;;;;15.52;13.38;;;17.10;99.90;;;;;;5107588;28;20046;-80
2023/08/30 02:51:59;;;;;;;15.90;14.15;;;17.10;99.90;;;;;;5067926;28;20131;-81
2023/08/30 02:54:25;;;;;;;15.45;13.85;;;17.20;99.90;;;;;;5103987;28;20105;-81
2023/08/30 02:56:51;;;;;;;17.33;14.52;;;17.10;99.90;;;;;;5089035;28;20487;-81
2023/08/30 02:59:17;;;;;;;16.17;14.05;;;17.10;99.90;;;;;;5107973;28;20040;-81
2023/08/30 03:01:52;;;;;;;16.75;14.13;;;17.10;99.90;;;;;;5086780;28;20151;-84
2023/08/30 03:04:18;;;;;;;15.52;13.82;;;17.20;99.90;;;;;;5128904;28;20602;-80
2023/08/30 03:06:44;;;;;;;16.20;13.85;;;17.10;99.90;;;;;;5103432;28;20101;-83
2023/08/30 03:09:11;;;;;;;14.68;12.93;;;17.10;99.90;;;;;;5085176;28;20035;-82
2023/08/30 03:11:37;;;;;;;14.18;12.77;;;17.10;99.90;;;;;;5107125;28;20463;-80
2023/08/30 03:14:03;;;;;;;16.00;13.23;;;17.10;99.90;;;;;;5106284;28;20045;-79
2023/08/30 03:16:29;;;;;;;15.73;13.40;;;17.10;99.90;;;;;;5071568;28;20390;-83
2023/08/30 03:18:54;;;;;;;15.00;13.38;;;17.10;99.90;;;;;;5089410;28;20456;-82
2023/08/30 03:21:20;;;;;;;14.25;12.75;;;16.80;99.90;;;;;;5103818;28;20046;-79
2023/08/30 03:23:46;;;;;;;15.30;13.70;;;17.00;99.90;;;;;;5092617;28;20043;-81
2023/08/30 03:26:14;;;;;;;14.75;13.15;;;16.60;99.90;;;;;;5069687;28;20123;-80
2023/08/30 03:28:41;;;;;;;16.75;14.20;;;17.00;99.90;;;;;;5110552;27;20437;-81
2023/08/30 03:31:19;;;;;;;15.55;13.60;;;17.10;99.90;;;;;;5097936;27;20068;-84
2023/08/30 03:33:46;;;;;;;15.35;13.75;;;17.10;99.90;;;;;;5131831;27;20344;-81
2023/08/30 03:36:13;;;;;;;17.08;13.70;;;17.00;99.90;;;;;;5131896;27;20039;-81
2023/08/30 03:38:40;;;;;;;16.17;13.75;;;17.00;99.90;;;;;;5096275;27;20467;-81
2023/08/30 03:41:06;;;;;;;15.82;14.13;;;16.90;99.90;;;;;;5115219;27;20118;-82
2023/08/30 03:43:33;;;;;;;15.15;13.55;;;17.00;99.90;;;;;;5113258;27;20043;-82
2023/08/30 03:46:00;;;;;;;14.75;12.95;;;17.00;99.90;;;;;;5132942;27;20553;-82
2023/08/30 03:48:27;;;;;;;14.52;13.07;;;16.90;99.90;;;;;;5114291;27;20043;-82
2023/08/30 03:50:54;;;;;;;14.77;12.95;;;17.00;99.90;;;;;;5114671;27;20031;-81
2023/08/30 03:53:19;;;;;;;17.65;13.88;;;16.90;99.90;;;;;;5092558;27;20078;-82
2023/08/30 03:55:48;;;;;;;15.57;13.57;;;16.90;99.90;;;;;;5094351;27;20478;-81
2023/08/30 03:58:14;;;;;;;15.60;13.48;;;16.90;99.90;;;;;;5108640;28;20051;-82
2023/08/30 04:00:42;;;;;;;18.20;14.23;;;17.00;99.90;;;;;;5077813;27;20059;-81
2023/08/30 04:03:09;;;;;;;15.80;12.88;;;16.90;99.90;;;;;;5113380;27;20030;-82
2023/08/30 04:05:36;;;;;;;15.27;12.77;;;16.90;99.90;;;;;;5097208;27;20039;-83
2023/08/30 04:08:04;;;;;;;14.30;12.77;;;16.90;99.90;;;;;;5123509;27;20135;-82
2023/08/30 04:10:35;;;;;;;15.18;13.40;;;16.90;99.90;;;;;;5087139;28;20044;-80
2023/08/30 04:13:01;;;;;;;14.48;12.63;;;16.90;99.90;;;;;;5130808;27;20758;-82
2023/08/30 04:15:26;;;;;;;15.55;12.93;;;16.90;99.90;;;;;;5096209;27;20039;-83
2023/08/30 04:17:52;;;;;;;14.07;11.73;;;16.90;99.90;;;;;;5115093;27;20125;-83
2023/08/30 04:20:18;;;;;;;13.15;11.80;;;16.50;99.90;;;;;;5110808;28;20376;-82
2023/08/30 04:22:43;;;;;;;13.82;11.60;;;16.80;99.90;;;;;;5093854;27;20043;-81
2023/08/30 04:25:10;;;;;;;13.57;11.93;;;16.30;99.90;;;;;;5130698;27;20035;-81
2023/08/30 04:27:36;;;;;;;16.83;13.43;;;16.80;99.90;;;;;;5085942;27;20036;-84
2023/08/30 04:30:03;;;;;;;15.65;13.32;;;16.70;99.90;;;;;;5110290;27;20087;-81
2023/08/30 04:32:28;;;;;;;16.00;14.30;;;16.60;99.90;;;;;;5110245;28;20468;-81
2023/08/30 04:34:54;;;;;;;14.73;13.15;;;16.70;99.90;;;;;;5110710;27;20048;-84
2023/08/30 04:37:20;;;;;;;14.63;12.38;;;16.70;99.90;;;;;;5069201;28;20041;-81
2023/08/30 04:39:49;;;;;;;14.95;13.25;;;16.70;99.90;;;;;;5091343;27;20062;-81
2023/08/30 04:42:15;;;;;;;13.77;12.10;;;16.70;99.90;;;;;;5112921;27;20079;-80
2023/08/30 04:44:44;;;;;;;14.50;12.50;;;16.70;99.90;;;;;;5111533;27;20122;-81
2023/08/30 04:47:09;;;;;;;14.48;12.85;;;16.80;99.90;;;;;;5094949;27;20067;-85
2023/08/30 04:49:35;;;;;;;14.65;12.60;;;16.70;99.90;;;;;;5108951;28;20211;-83
2023/08/30 04:52:01;;;;;;;14.73;13.10;;;16.70;99.90;;;;;;5109742;27;20031;-81
2023/08/30 04:54:26;;;;;;;14.75;13.25;;;16.80;99.90;;;;;;5112084;27;20647;-82
2023/08/30 04:56:53;;;;;;;16.05;14.05;;;16.80;99.90;;;;;;5086018;27;20035;-83
2023/08/30 04:59:19;;;;;;;14.20;12.68;;;16.80;99.90;;;;;;5129299;27;20085;-81
2023/08/30 05:01:44;;;;;;;15.85;12.85;;;16.80;99.90;;;;;;5109367;28;20071;-82
2023/08/30 05:04:11;;;;;;;14.98;13.05;;;16.80;99.90;;;;;;5129541;27;20096;-83
2023/08/30 05:06:36;;;;;;;17.70;14.55;;;16.80;99.90;;;;;;5112753;27;20063;-84
2023/08/30 05:09:03;;;;;;;15.45;12.07;;;16.80;99.90;;;;;;5109095;27;20063;-82
2023/08/30 05:11:29;;;;;;;13.30;11.90;;;16.90;99.90;;;;;;5114131;27;20031;-82
2023/08/30 05:13:55;;;;;;;14.48;12.98;;;16.80;99.90;;;;;;5129889;27;20035;-84
2023/08/30 05:16:21;;;;;;;16.48;12.95;;;16.80;99.90;;;;;;5092697;27;20039;-84
2023/08/30 05:18:49;;;;;;;13.55;11.98;;;16.80;99.90;;;;;;5104591;27;20039;-85
2023/08/30 05:21:15;;;;;;;14.35;12.48;;;16.90;99.90;;;;;;5113626;27;20027;-83
2023/08/30 05:23:42;;;;;;;15.27;13.30;;;16.80;99.90;;;;;;5092665;27;20570;-81
2023/08/30 05:26:14;;;;;;;13.82;11.73;;;16.80;99.90;;;;;;5123834;27;20036;-80
2023/08/30 05:28:40;;;;;;;14.45;12.32;;;16.90;99.90;;;;;;5087918;27;20470;-81
2023/08/30 05:31:06;;;;;;;15.82;12.45;;;17.00;99.90;;;;;;5125063;27;20074;-81
2023/08/30 05:33:32;;;;;;;13.85;12.00;;;17.10;99.90;;;;;;5107916;27;20035;-80
2023/08/30 05:35:57;;;;;;;14.52;11.82;;;17.10;99.90;;;;;;5119612;27;20035;-80
2023/08/30 05:38:23;;;;;;;14.25;12.05;;;17.00;99.90;;;;;;5074582;27;20035;-80
2023/08/30 05:40:49;;;;;;;13.75;12.15;;;17.00;99.90;;;;;;5093585;27;20065;-80
2023/08/30 05:43:16;;;;;;;14.88;12.15;;;17.00;99.90;;;;;;5072109;27;20405;-80
2023/08/30 05:45:43;;;;;;;13.80;12.20;;;17.10;99.90;;;;;;5070624;28;20043;-80
2023/08/30 05:48:08;;;;;;;13.98;12.13;;;17.10;99.90;;;;;;5107553;27;20072;-82
2023/08/30 05:50:34;;;;;;;14.15;11.73;;;17.10;99.90;;;;;;5110356;27;20035;-80
2023/08/30 05:53:00;;;;;;;16.20;12.02;;;17.20;99.90;;;;;;5094184;27;20055;-81
2023/08/30 05:55:26;;;;;;;16.15;12.35;;;17.10;99.90;;;;;;5110852;27;20491;-82
2023/08/30 05:57:51;;;;;;;14.85;11.30;;;17.30;99.90;;;;;;5083324;27;20062;-80
2023/08/30 06:00:17;;;;;;;14.10;10.50;;;17.30;99.90;;;;;;5125035;27;20035;-79
2023/08/30 06:02:44;;;;;;;13.02;11.07;;;17.30;99.90;;;;;;5105578;27;20462;-80
2023/08/30 06:05:10;;;;;;;14.48;12.57;;;17.40;99.90;;;;;;5108189;27;20110;-81
2023/08/30 06:07:36;;;;;;;12.45;11.15;;;17.40;99.90;;;;;;5086708;28;20122;-81
2023/08/30 06:10:02;;;;;;;14.07;11.90;;;17.40;99.90;;;;;;5122191;27;20043;-80
2023/08/30 06:12:27;;;;;;;15.68;12.23;;;17.50;99.90;;;;;;5110733;27;20043;-80
2023/08/30 06:14:54;;;;;;;16.33;12.82;;;17.50;99.90;;;;;;5123815;27;20041;-81
2023/08/30 06:17:19;;;;;;;11.43;9.32;;;17.60;99.90;;;;;;5108818;27;20533;-81
2023/08/30 06:19:46;;;;;;;13.77;10.90;;;17.50;99.90;;;;;;5082464;28;20028;-80
2023/08/30 06:22:12;;;;;;;14.07;11.38;;;17.70;99.90;;;;;;5126265;27;20043;-80
2023/08/30 06:24:38;;;;;;;15.35;11.57;;;17.70;99.90;;;;;;5111474;27;20023;-81
2023/08/30 06:27:04;;;;;;;15.50;11.85;;;17.70;99.90;;;;;;5127059;27;20134;-81
2023/08/30 06:29:29;;;;;;;13.23;11.48;;;17.80;99.90;;;;;;5094229;28;20054;-81
2023/08/30 06:31:55;;;;;;;12.23;10.82;;;17.80;99.90;;;;;;5087551;28;20028;-81
2023/08/30 06:34:21;;;;;;;15.32;11.10;;;18.00;99.90;;;;;;5124763;28;20123;-81
2023/08/30 06:36:48;;;;;;;14.27;10.95;;;18.00;99.90;;;;;;5106991;28;20027;-80
2023/08/30 06:39:14;;;;;;;13.98;11.25;;;18.00;99.90;;;;;;5111219;28;20042;-81
2023/08/30 06:41:39;;;;;;;12.48;9.57;;;18.20;99.90;;;;;;5099946;28;20402;-81
2023/08/30 06:44:05;;;;;;;13.48;11.35;;;18.20;99.90;;;;;;5066199;28;20174;-81
2023/08/30 06:46:31;;;;;;;13.05;10.82;;;18.20;99.90;;;;;;5126947;28;20043;-81
2023/08/30 06:48:57;;;;;;;11.77;10.57;;;18.30;99.90;;;;;;5108758;28;20038;-80
2023/08/30 06:51:23;;;;;;;13.45;10.65;;;18.40;99.90;;;;;;5126689;28;20031;-82
2023/08/30 06:53:49;;;;;;;13.32;10.07;;;18.40;99.90;;;;;;5110220;28;20570;-81
2023/08/30 06:56:14;;;;;;;12.35;9.40;;;18.50;99.90;;;;;;5109163;28;20051;-81
2023/08/30 06:58:40;;;;;;;11.60;10.15;;;18.50;99.90;;;;;;5109792;28;20050;-82
2023/08/30 07:01:06;;;;;;;14.40;10.73;;;18.60;99.90;;;;;;5087114;28;20377;-81
2023/08/30 07:03:31;;;;;;;14.40;10.30;;;18.60;99.90;;;;;;5089963;27;20130;-81
2023/08/30 07:05:57;;;;;;;13.57;11.45;;;18.50;99.90;;;;;;5114498;27;20043;-80
2023/08/30 07:08:23;;;;;;;13.27;10.05;;;18.50;99.90;;;;;;5090998;27;20043;-80
2023/08/30 07:10:49;;;;;;;10.52;9.25;;;18.70;99.90;;;;;;5080462;27;20102;-81
2023/08/30 07:13:15;;;;;;;11.73;9.20;;;18.70;99.90;;;;;;5087435;27;20035;-81
2023/08/30 07:15:41;;;;;;;11.88;9.32;;;18.80;99.90;;;;;;5107278;27;20042;-81
2023/08/30 07:18:08;;;;;;;12.98;9.38;;;18.90;99.90;;;;;;5109717;27;20035;-81
2023/08/30 07:20:36;;;;;;;11.10;8.65;;;18.80;99.90;;;;;;5110152;27;20036;-81
2023/08/30 07:23:02;;;;;;;9.32;7.88;;;18.90;99.90;;;;;;5131235;27;20058;-82
2023/08/30 07:25:30;;;;;;;13.05;9.00;;;18.90;99.90;;;;;;5088286;28;20050;-80
2023/08/30 07:27:59;;;;;;;11.57;8.27;;;18.90;99.90;;;;;;5129343;27;20172;-80
2023/08/30 07:30:26;;;;;;;10.13;8.48;;;19.00;99.90;;;;;;5109892;27;20027;-82
2023/08/30 07:32:51;;;;;;;12.35;9.40;;;19.10;99.90;;;;;;5091385;27;20450;-84
2023/08/30 07:35:17;;;;;;;11.98;9.15;;;19.10;99.90;;;;;;5097048;27;20118;-83
2023/08/30 07:37:43;;;;;;;13.68;9.05;;;18.80;99.90;;;;;;5103979;27;20173;-83
2023/08/30 07:40:09;;;;;;;11.02;9.02;;;19.20;99.90;;;;;;5111877;27;20121;-84
2023/08/30 07:42:35;;;;;;;10.38;8.20;;;19.20;99.90;;;;;;5123514;27;20049;-83
2023/08/30 07:45:01;;;;;;;9.75;8.30;;;19.30;99.90;;;;;;5096612;27;20027;-83
2023/08/30 07:47:27;;;;;;;9.82;7.90;;;19.50;99.90;;;;;;5113439;27;20034;-83
2023/08/30 07:49:52;;;;;;;10.43;7.90;;;19.50;99.90;;;;;;5129895;27;20110;-83
2023/08/30 07:52:18;;;;;;;10.77;7.93;;;19.50;99.90;;;;;;5090636;27;20039;-83
2023/08/30 07:54:44;;;;;;;9.98;7.43;;;19.60;99.90;;;;;;5086717;27;20146;-84
2023/08/30 07:57:10;;;;;;;12.10;8.40;;;19.70;99.90;;;;;;5086718;27;21741;-82
2023/08/30 07:59:36;;;;;;;9.00;7.57;;;19.80;99.90;;;;;;5130254;27;20043;-85
2023/08/30 08:02:03;;;;;;;10.25;8.30;;;20.00;99.90;;;;;;5111718;27;20047;-81
2023/08/30 08:04:29;;;;;;;12.05;8.32;;;20.10;99.90;;;;;;5117322;27;20047;-79
2023/08/30 08:06:55;;;;;;;9.50;7.57;;;20.10;99.90;;;;;;5091242;27;20035;-82
2023/08/30 08:09:21;;;;;;;12.80;8.18;;;20.10;99.90;;;;;;5073015;28;20546;-83
2023/08/30 08:11:49;;;;;;;9.52;7.57;;;20.10;99.90;;;;;;5079500;27;20433;-84
2023/08/30 08:14:15;;;;;;;9.77;6.82;;;20.20;99.90;;;;;;5111743;27;20451;-84
2023/08/30 08:16:41;;;;;;;10.50;7.75;;;20.10;99.90;;;;;;5131017;27;20035;-82
2023/08/30 08:19:09;;;;;;;8.90;7.28;;;20.30;99.90;;;;;;5069568;28;20384;-82
2023/08/30 08:21:35;;;;;;;10.93;7.85;;;20.40;99.90;;;;;;5107378;28;20050;-86
2023/08/30 08:24:01;;;;;;;9.63;7.80;;;20.50;99.90;;;;;;5125248;27;20600;-87
2023/08/30 08:26:27;;;;;;;11.15;8.23;;;20.50;99.90;;;;;;5112543;27;20045;-85
2023/08/30 08:28:56;;;;;;;13.43;9.15;;;20.40;99.90;;;;;;5116171;27;20426;-83
2023/08/30 08:31:22;;;;;;;9.43;7.53;;;20.40;99.90;;;;;;5092013;28;20032;-86
2023/08/30 08:33:52;;;;;;;11.57;8.35;;;20.50;99.90;;;;;;5097684;27;20162;-85
2023/08/30 08:36:18;;;;;;;12.82;8.40;;;20.50;99.90;;;;;;5115899;27;20573;-87
2023/08/30 08:38:44;;;;;;;10.13;8.43;;;20.70;99.90;;;;;;5079102;27;20047;-87
2023/08/30 08:41:14;;;;;;;12.68;9.02;;;20.80;99.90;;;;;;5109524;27;20182;-83
2023/08/30 08:43:42;;;;;;;10.75;7.88;;;20.70;99.90;;;;;;5108866;27;20540;-83
2023/08/30 08:46:11;;;;;;;12.60;8.65;;;20.90;99.90;;;;;;5128557;27;20047;-83
2023/08/30 08:48:43;;;;;;;12.75;7.70;;;21.00;99.90;;;;;;5109200;27;20043;-80
2023/08/30 08:51:09;;;;;;;9.80;7.03;;;21.00;99.90;;;;;;5081150;27;20088;-82
2023/08/30 08:53:37;;;;;;;8.00;7.15;;;21.00;99.90;;;;;;5115886;27;20047;-83
2023/08/30 08:56:04;;;;;;;9.68;7.65;;;21.10;99.90;;;;;;5112817;27;20394;-86
2023/08/30 08:58:30;;;;;;;9.23;7.88;;;21.10;99.90;;;;;;5108284;27;20122;-79
2023/08/30 09:00:56;;;;;;;9.43;7.43;;;21.20;99.90;;;;;;5109636;27;20030;-81
2023/08/30 09:03:22;;;;;;;10.68;7.28;;;21.30;99.90;;;;;;5109389;27;20036;-81
2023/08/30 09:05:50;;;;;;;13.20;8.23;;;21.40;99.90;;;;;;5105107;27;20046;-81
2023/08/30 09:08:16;;;;;;;9.63;7.50;;;21.40;99.90;;;;;;5090226;27;20037;-80
2023/08/30 09:10:43;;;;;;;8.32;7.18;;;21.50;99.90;;;;;;5086297;28;20118;-81
2023/08/30 09:13:08;;;;;;;9.57;7.30;;;21.40;99.90;;;;;;5102426;27;20047;-81
2023/08/30 09:15:38;;;;;;;8.80;7.10;;;21.50;99.90;;;;;;5093261;27;20407;-81
2023/08/30 09:18:27;;;;;;;8.93;7.03;;;21.40;99.90;;;;;;5112354;27;20034;-82
2023/08/30 09:21:13;;;;;;;9.07;7.05;;;21.30;99.90;;;;;;5087208;28;20039;-81
2023/08/30 09:23:38;;;;;;;8.93;6.82;;;21.20;99.90;;;;;;5091351;27;20047;-81
2023/08/30 09:26:05;;;;;;;11.70;7.43;;;21.20;99.90;;;;;;5105721;27;20115;-82
2023/08/30 09:28:33;;;;;;;10.63;8.15;;;21.20;99.90;;;;;;5110977;27;20043;-82
2023/08/30 09:31:00;;;;;;;10.23;7.00;;;21.00;99.90;;;;;;5088252;28;20036;-84
2023/08/30 09:33:33;;;;;;;9.82;7.47;;;20.80;99.90;;;;;;5077642;27;20122;-81
2023/08/30 09:36:00;;;;;;;9.60;7.30;;;20.80;99.90;;;;;;5109876;27;20648;-82
2023/08/30 09:38:26;;;;;;;10.27;6.75;;;20.90;99.90;;;;;;5108272;27;20387;-81
2023/08/30 09:40:53;;;;;;;10.68;6.95;;;20.80;99.90;;;;;;5088775;27;20046;-80
2023/08/30 09:43:22;;;;;;;9.40;7.22;;;20.70;99.90;;;;;;5108412;27;20050;-81
2023/08/30 09:45:48;;;;;;;9.60;7.55;;;20.70;99.90;;;;;;5127262;27;20047;-81
2023/08/30 09:48:14;;;;;;;9.15;7.10;;;20.70;99.90;;;;;;5093483;27;20415;-82
2023/08/30 09:50:44;;;;;;;9.07;6.45;;;20.70;99.90;;;;;;5103985;27;20062;-82
2023/08/30 09:53:14;;;;;;;9.30;7.45;;;20.60;99.90;;;;;;5111187;27;20080;-82
2023/08/30 09:55:41;;;;;;;9.63;7.07;;;20.60;99.90;;;;;;5111968;27;20039;-84
2023/08/30 09:58:07;;;;;;;7.53;5.70;;;20.60;99.90;;;;;;5084178;28;20110;-83
2023/08/30 10:00:34;;;;;;;10.57;7.75;;;20.50;99.90;;;;;;5127115;27;20473;-83
2023/08/30 10:03:01;;;;;;;9.98;7.63;;;20.50;99.90;;;;;;5107516;27;20040;-84
2023/08/30 10:05:27;;;;;;;10.45;7.90;;;20.40;99.90;;;;;;5108976;27;20371;-83
2023/08/30 10:07:54;;;;;;;10.88;8.00;;;20.50;99.90;;;;;;5087748;27;20031;-84
2023/08/30 10:10:20;;;;;;;10.45;8.25;;;20.50;99.90;;;;;;5128609;27;20051;-83
2023/08/30 10:12:47;;;;;;;11.60;8.20;;;20.70;99.90;;;;;;5110689;28;20062;-82
2023/08/30 10:15:13;;;;;;;10.25;7.38;;;20.70;99.90;;;;;;5111407;27;20598;-82
2023/08/30 10:17:44;;;;;;;8.90;7.65;;;20.70;99.90;;;;;;5112147;27;20039;-83
2023/08/30 10:20:12;;;;;;;9.20;7.65;;;20.80;99.90;;;;;;5103803;28;20058;-83
2023/08/30 10:22:39;;;;;;;11.65;7.50;;;20.80;99.90;;;;;;5094302;27;20051;-83
2023/08/30 10:25:16;;;;;;;11.60;7.82;;;21.00;99.90;;;;;;5128525;27;20031;-84
2023/08/30 10:27:48;;;;;;;9.20;7.78;;;21.10;99.90;;;;;;5110864;27;20370;-83
2023/08/30 10:30:15;;;;;;;11.93;8.18;;;21.10;99.90;;;;;;5111234;27;20092;-84
2023/08/30 10:32:42;;;;;;;11.13;7.50;;;21.30;99.90;;;;;;5129443;28;20035;-85
2023/08/30 10:35:19;;;;;;;14.68;8.20;;;21.30;99.90;;;;;;5105634;28;20070;-83
2023/08/30 10:38:05;;;;;;;7.35;5.55;;;21.40;99.90;;;;;;5089981;28;20078;-82
2023/08/30 10:40:31;;;;;;;8.20;4.70;;;21.50;99.90;;;;;;5125881;27;20138;-84
2023/08/30 10:43:04;;;;;;;6.50;5.15;;;21.30;99.90;;;;;;5115226;27;20598;-82
2023/08/30 10:45:30;;;;;;;6.75;4.85;;;21.70;99.90;;;;;;5114441;27;20035;-83
2023/08/30 10:47:57;;;;;;;4.97;3.58;;;21.80;99.90;;;;;;5133250;27;20435;-82
2023/08/30 10:50:31;;;;;;;7.30;4.53;;;21.70;99.90;;;;;;5114191;27;20532;-84
2023/08/30 10:52:57;;;;;;;6.72;5.75;;;21.60;99.90;;;;;;5115013;27;20139;-83
2023/08/30 10:55:23;;;;;;;7.22;5.88;;;21.50;99.90;;;;;;5112736;27;20591;-82
2023/08/30 10:58:02;;;;;;;8.38;6.18;;;21.70;99.90;;;;;;5095964;28;20430;-83
2023/08/30 11:00:30;;;;;;;9.55;8.07;;;21.50;99.90;;;;;;5114263;27;20074;-81
2023/08/30 11:02:57;;;;;;;11.05;7.65;;;21.40;99.90;;;;;;5107617;27;20031;-83
2023/08/30 11:05:24;;;;;;;7.70;6.50;;;21.30;99.90;;;;;;5094308;27;20103;-84
2023/08/30 11:07:51;;;;;;;7.78;6.85;;;21.40;99.90;;;;;;5088630;27;20117;-84
2023/08/30 11:10:18;;;;;;;9.05;6.35;;;21.50;99.90;;;;;;5090772;27;20027;-83
2023/08/30 11:12:44;;;;;;;6.80;5.57;;;21.70;99.90;;;;;;5132497;27;20535;-82
2023/08/30 11:15:14;;;;;;;6.15;4.78;;;21.60;99.90;;;;;;5097558;27;20394;-84
2023/08/30 11:17:42;;;;;;;6.72;5.07;;;21.40;99.90;;;;;;5109124;27;20609;-83
2023/08/30 11:20:13;;;;;;;7.25;5.97;;;21.60;99.90;;;;;;5115872;27;20142;-84
2023/08/30 11:22:44;;;;;;;4.85;4.13;;;21.50;99.90;;;;;;5115600;27;20081;-86
2023/08/30 11:25:11;;;;;;;5.05;3.30;;;21.50;99.90;;;;;;5114051;27;20061;-85
2023/08/30 11:27:38;;;;;;;5.18;3.47;;;21.30;99.90;;;;;;5122390;27;20586;-84
2023/08/30 11:30:05;;;;;;;4.15;2.60;;;21.20;99.90;;;;;;5115797;27;20050;-83
2023/08/30 11:32:39;;;;;;;4.68;3.38;;;21.20;99.90;;;;;;5116210;27;20126;-84
2023/08/30 11:35:06;;;;;;;4.85;3.42;;;21.20;99.90;;;;;;5115352;27;20043;-84
2023/08/30 11:37:32;;;;;;;4.65;3.30;;;21.00;99.90;;;;;;5111264;28;20032;-84
2023/08/30 11:39:59;;;;;;;4.32;3.40;;;21.10;99.90;;;;;;5126978;27;20035;-84
2023/08/30 11:42:26;;;;;;;4.85;2.88;;;21.20;99.90;;;;;;5105902;27;20122;-84
2023/08/30 11:44:51;;;;;;;5.22;3.92;;;21.20;99.90;;;;;;5091776;28;20042;-85
2023/08/30 11:47:24;;;;;;;4.55;3.78;;;21.20;99.90;;;;;;5092039;28;20040;-84
2023/08/30 11:49:59;;;;;;;6.90;3.90;;;21.10;99.90;;;;;;5106900;27;20143;-84
2023/08/30 11:52:25;;;;;;;3.88;3.47;;;21.00;99.90;;;;;;5130113;27;20091;-84
2023/08/30 11:54:52;;;;;;;4.60;3.50;;;21.00;99.90;;;;;;5115995;27;20042;-83
2023/08/30 11:57:18;;;;;;;5.43;4.15;;;21.00;99.90;;;;;;5115502;27;20401;-84
2023/08/30 11:59:44;;;;;;;6.32;4.50;;;21.10;99.90;;;;;;5100141;27;20038;-85
2023/08/30 12:02:13;;;;;;;4.80;4.13;;;21.00;99.90;;;;;;5116902;27;20401;-83
2023/08/30 12:04:43;;;;;;;8.07;4.70;;;20.90;99.90;;;;;;5116768;27;20097;-83
2023/08/30 12:07:10;;;;;;;5.38;4.22;;;21.00;99.90;;;;;;5097821;27;20035;-85
2023/08/30 12:09:36;;;;;;;5.78;4.75;;;20.80;99.90;;;;;;5095036;27;20046;-83
2023/08/30 12:12:10;;;;;;;5.88;4.70;;;20.70;99.90;;;;;;5133627;27;20043;-84
2023/08/30 12:14:36;;;;;;;8.70;5.23;;;20.70;99.90;;;;;;5115999;27;20253;-84
2023/08/30 12:17:03;;;;;;;6.93;5.53;;;20.80;99.90;;;;;;5117580;27;20272;-83
2023/08/30 12:19:29;;;;;;;6.18;5.40;;;20.80;99.90;;;;;;5117846;27;20034;-84
2023/08/30 12:21:55;;;;;;;6.80;5.97;;;20.80;99.90;;;;;;5118176;27;20126;-83
2023/08/30 12:24:22;;;;;;;9.75;6.68;;;20.70;99.90;;;;;;5097504;27;20126;-84
2023/08/30 12:26:48;;;;;;;6.82;5.93;;;20.70;99.90;;;;;;5081090;27;20510;-84
2023/08/30 12:29:14;;;;;;;9.18;7.30;;;20.60;99.90;;;;;;5127839;27;20103;-85
2023/08/30 12:31:43;;;;;;;8.80;7.55;;;20.50;99.90;;;;;;5100014;27;20035;-83
2023/08/30 12:34:09;;;;;;;10.10;7.88;;;20.30;99.90;;;;;;5133563;27;20122;-84